Portada
METAR-TAF:

METAR-TAF

Aeropuertos :

Buraidá, Arabia Saudita

latitud: 26-18N, longitud: 043-46E, altitud: 648 m

Observación

El informe se hizo hace 59 minutos, a las 02:00 UTC
Viento 3 kt del oeste
Temperatura 9°C
Humedad 81%
Presión 1022 hPa
Visibilidad: 8000 m

METAR: OEGS 270200Z 28003KT 8000 NSC 09/06 Q1022

Hora: 05:59 (02:59 UTC)

Pronóstico

El informe se hizo hace 3 horas y 59 minutos, a las 23:00 UTC
Pronóstico válido del 27 a las 00 UTC al 28 a las 06 UTC
Viento 3 kt con dirección variable
Visibilidad 10 km o más
sin nubes por debajo de 1500 m y sin presencia de cumulonimbus.
Evolucionando progresivamente
del 27 a las 06 UTC al 27 a las 08 UTC
Viento 12 kt del norte

TAF: OEGS 262300Z 2700/2806 VRB03KT CAVOK BECMG 2706/2708 36012KT

Observaciones y pronósticos meteorológicos de más de 4000 aeropuertos (mensajes METAR y TAF).

Los puntos amarillos y rojos representan las estaciones disponibles.

Ponga el ratón en el punto deseado para ver el nombre de la estación.

Haga clic para ver las observaciones y los pronósticos meteorológicos.

Para cambiar el mapa : haga clic en los botones verdes con una cruz de color negro para hacer un zoom, en el botón verde con un guión para alejar o en las flechas verdes para mapas adyacentes.


METAR-TAF: